Mogadishu, Somalia
Current Conditions -  °F | °C
As of 2:55 PM on Saturday 25 Oct 2014 (Local Time) from KQVF Reporting Station
Broken Clouds Broken Clouds  
Wind Chill: 85°   Ceiling: 3200
Heat Index: 91°   Visibility: 6mi
Dew Point: 71°   Wind: 3mph
Humidity: 63%   Direction: NA
Pressure: 29.88"   Gusts: NA
Location:  2.05°N, 45.33°E
Report Text: KQVF 251155Z AUTO VRB03KT 9999 FEW028 BKN032 30/22 A2988 RMK AO2 SLP117 70004 T02960218 10269 20241 56028 PWINO $
Loading
Personal Weather Stations






























Interactive Weather Map
Tropical Storm Tracking
New forecast layout! Learn more

10-Day Weather Forecast

Advertisements
Track Severe Weather on mobile